Time;durP1;ratioP1;P1;durP2;ratioP2;P2;SDS_P1;SDS_P2;PMS_P1;PMS_P2;Temp;Humidity;BMP_temperature;BMP_pressure;BME280_temperature;BME280_humidity;BME280_pressure;Samples;Min_cycle;Max_cycle;Signal;HPM_P1;HPM_P2
2023/02/27 00:02:44;;;;;;;;;;;;;;;19.26;37.17;95781.94;10477614;28;1995;-53
2023/02/27 00:07:54;;;;;;;;;;;;;;;19.24;37.09;95776.16;10475431;28;1973;-53
2023/02/27 00:12:55;;;;;;;;;;;;;;;19.23;37.02;95774.56;10473780;28;2006;-52
2023/02/27 00:17:57;;;;;;;;;;;;;;;19.22;37.04;95786.16;10473579;28;1991;-53
2023/02/27 00:22:58;;;;;;;;;;;;;;;19.21;37.02;95789.81;10466495;28;2003;-53
2023/02/27 00:27:59;;;;;;;;;;;;;;;19.22;36.98;95795.88;10473985;28;2080;-52
2023/02/27 00:32:59;;;;;;;;;;;;;;;19.21;36.91;95791.66;10476003;28;2084;-54
2023/02/27 00:38:00;;;;;;;;;;;;;;;19.20;36.85;95793.50;10474390;28;1965;-53
2023/02/27 00:43:01;;;;;;;;;;;;;;;19.20;36.75;95790.09;10452589;28;1956;-54
2023/02/27 00:48:02;;;;;;;;;;;;;;;19.21;36.64;95789.81;10470912;28;2127;-53
2023/02/27 00:53:04;;;;;;;;;;;;;;;19.21;36.55;95796.91;10470513;28;1955;-52
2023/02/27 00:58:10;;;;;;;;;;;;;;;19.22;36.29;95791.41;10474320;28;1962;-52
2023/02/27 01:03:11;;;;;;;;;;;;;;;19.22;36.33;95791.41;10465182;28;1979;-54
2023/02/27 01:08:11;;;;;;;;;;;;;;;19.23;35.98;95790.34;10474506;28;1924;-54
2023/02/27 01:13:12;;;;;;;;;;;;;;;19.24;36.13;95794.56;10447547;28;2114;-54
2023/02/27 01:18:12;;;;;;;;;;;;;;;19.25;35.90;95790.06;10462583;28;1985;-50
2023/02/27 01:23:12;;;;;;;;;;;;;;;19.26;35.80;95787.22;10463601;28;1999;-54
2023/02/27 01:28:13;;;;;;;;;;;;;;;19.27;35.89;95785.34;10464010;28;2064;-54
2023/02/27 01:33:13;;;;;;;;;;;;;;;19.26;35.87;95791.66;10467698;28;2009;-55
2023/02/27 01:38:21;;;;;;;;;;;;;;;19.27;35.72;95796.66;10471997;28;1889;-52
2023/02/27 01:43:22;;;;;;;;;;;;;;;19.27;35.59;95794.03;10453147;28;1986;-54
2023/02/27 01:48:25;;;;;;;;;;;;;;;19.26;35.55;95781.94;10464414;28;1925;-54
2023/02/27 01:53:25;;;;;;;;;;;;;;;19.27;35.29;95791.41;10467690;28;2011;-55
2023/02/27 01:58:27;;;;;;;;;;;;;;;19.27;35.44;95793.22;10472700;28;2151;-55
2023/02/27 02:03:47;;;;;;;;;;;;;;;19.27;35.38;95796.66;10458438;28;1964;-55
2023/02/27 02:08:49;;;;;;;;;;;;;;;19.26;35.30;95796.91;10474441;28;2107;-53
2023/02/27 02:13:50;;;;;;;;;;;;;;;19.25;35.20;95790.88;10461476;28;1986;-53
2023/02/27 02:19:10;;;;;;;;;;;;;;;19.26;35.22;95794.28;10472882;28;2004;-52
2023/02/27 02:24:16;;;;;;;;;;;;;;;19.25;35.23;95790.06;10464415;28;1963;-53
2023/02/27 02:29:20;;;;;;;;;;;;;;;19.25;34.96;95779.56;10461893;28;1969;-52
2023/02/27 02:34:22;;;;;;;;;;;;;;;19.24;35.02;95788.50;10455926;28;2107;-54
2023/02/27 02:39:23;;;;;;;;;;;;;;;19.23;35.15;95782.47;10477171;28;2071;-51
2023/02/27 02:44:30;;;;;;;;;;;;;;;19.24;34.89;95783.25;10483976;28;2110;-53
2023/02/27 02:49:30;;;;;;;;;;;;;;;19.22;34.98;95770.38;10455495;28;1967;-53
2023/02/27 02:54:41;;;;;;;;;;;;;;;19.21;34.87;95774.06;10485019;28;1905;-52
2023/02/27 02:59:49;;;;;;;;;;;;;;;19.20;34.90;95777.75;10440186;28;2073;-55
2023/02/27 03:04:54;;;;;;;;;;;;;;;19.19;34.91;95789.28;10468198;28;2010;-53
2023/02/27 03:09:56;;;;;;;;;;;;;;;19.19;34.59;95794.56;10472145;28;1959;-53
2023/02/27 03:15:16;;;;;;;;;;;;;;;19.19;34.68;95789.28;10462514;28;1948;-52
2023/02/27 03:20:28;;;;;;;;;;;;;;;19.18;34.62;95786.94;10471575;28;2028;-54
2023/02/27 03:25:29;;;;;;;;;;;;;;;19.16;34.48;95792.47;10457355;28;1941;-54
2023/02/27 03:30:31;;;;;;;;;;;;;;;19.16;34.56;95789.03;10477396;28;1938;-55
2023/02/27 03:35:52;;;;;;;;;;;;;;;19.16;34.60;95797.72;10469955;28;2060;-54
2023/02/27 03:40:56;;;;;;;;;;;;;;;19.14;34.50;95793.78;10465966;28;2057;-53
2023/02/27 03:45:57;;;;;;;;;;;;;;;19.13;34.40;95800.06;10453753;28;1981;-54
2023/02/27 03:50:58;;;;;;;;;;;;;;;19.11;34.37;95805.59;10467694;28;1908;-52
2023/02/27 03:55:58;;;;;;;;;;;;;;;19.10;34.41;95804.00;10475555;28;1889;-52
2023/02/27 04:00:59;;;;;;;;;;;;;;;19.09;34.29;95810.31;10478706;28;1961;-53
2023/02/27 04:07:21;;;;;;;;;;;;;;;19.08;34.25;95811.34;10469783;28;2150;-54
2023/02/27 04:11:26;;;;;;;;;;;;;;;19.07;34.16;95809.00;10473209;28;1947;-54
2023/02/27 04:16:36;;;;;;;;;;;;;;;19.06;34.29;95818.72;10468026;28;1974;-55
2023/02/27 04:22:05;;;;;;;;;;;;;;;19.06;34.21;95817.94;10457405;28;2125;-52
2023/02/27 04:27:09;;;;;;;;;;;;;;;19.03;34.03;95811.38;10446551;28;1953;-53
2023/02/27 04:32:24;;;;;;;;;;;;;;;19.01;34.14;95805.59;10467532;28;2083;-52
2023/02/27 04:37:26;;;;;;;;;;;;;;;19.02;34.04;95816.91;10454093;28;1919;-52
2023/02/27 04:42:28;;;;;;;;;;;;;;;19.01;33.91;95816.09;10476094;28;1975;-53
2023/02/27 04:47:30;;;;;;;;;;;;;;;18.99;33.97;95812.94;10466944;28;1967;-54
2023/02/27 04:52:32;;;;;;;;;;;;;;;18.98;33.85;95810.59;10451985;28;1968;-52
2023/02/27 04:57:37;;;;;;;;;;;;;;;18.99;33.88;95820.03;10431098;28;1963;-54
2023/02/27 05:02:39;;;;;;;;;;;;;;;18.96;33.76;95812.69;10475257;28;1947;-54
2023/02/27 05:07:41;;;;;;;;;;;;;;;18.94;33.83;95810.31;10455766;28;1983;-53
2023/02/27 05:13:02;;;;;;;;;;;;;;;18.92;33.77;95822.13;10453762;28;2037;-54
2023/02/27 05:18:06;;;;;;;;;;;;;;;18.89;33.52;95817.41;10447999;28;2070;-55
2023/02/27 05:23:10;;;;;;;;;;;;;;;18.86;33.58;95820.53;10468636;28;1970;-54
2023/02/27 05:28:15;;;;;;;;;;;;;;;18.83;33.49;95823.69;10473186;28;2142;-54
2023/02/27 05:33:30;;;;;;;;;;;;;;;18.79;33.59;95820.81;10454205;28;1966;-53
2023/02/27 05:38:35;;;;;;;;;;;;;;;18.76;33.52;95818.69;10461595;28;1885;-55
2023/02/27 05:43:40;;;;;;;;;;;;;;;18.72;33.53;95822.88;10479689;28;1656;-54
2023/02/27 05:48:45;;;;;;;;;;;;;;;18.69;33.44;95826.81;10458172;28;1979;-52
2023/02/27 05:53:51;;;;;;;;;;;;;;;18.66;33.24;95831.78;10461353;28;1936;-55
2023/02/27 05:58:55;;;;;;;;;;;;;;;18.64;33.29;95828.63;10469518;28;2072;-53
2023/02/27 06:03:56;;;;;;;;;;;;;;;18.61;33.32;95826.53;10441032;28;2065;-55
2023/02/27 06:08:56;;;;;;;;;;;;;;;18.58;33.15;95834.94;10466468;28;1949;-51
2023/02/27 06:13:57;;;;;;;;;;;;;;;18.55;33.25;95832.81;10476678;28;1982;-55
2023/02/27 06:18:57;;;;;;;;;;;;;;;18.53;33.23;95840.16;10470347;28;2080;-52
2023/02/27 06:24:00;;;;;;;;;;;;;;;18.49;33.22;95836.47;10449310;28;1940;-50
2023/02/27 06:29:01;;;;;;;;;;;;;;;18.47;33.26;95849.06;10466249;28;1965;-51
2023/02/27 06:34:02;;;;;;;;;;;;;;;18.46;33.35;95850.13;10466048;28;1983;-54
2023/02/27 06:39:03;;;;;;;;;;;;;;;18.40;33.24;95846.63;10468507;28;2056;-54
2023/02/27 06:44:04;;;;;;;;;;;;;;;18.39;33.34;95852.94;10466218;28;1951;-52
2023/02/27 06:49:05;;;;;;;;;;;;;;;18.37;33.41;95846.38;10473022;28;1903;-55
2023/02/27 06:54:06;;;;;;;;;;;;;;;18.34;33.31;95852.16;10470351;28;1978;-55
2023/02/27 06:59:07;;;;;;;;;;;;;;;18.32;33.40;95867.34;10468235;28;2072;-54
2023/02/27 07:04:08;;;;;;;;;;;;;;;18.30;33.37;95859.72;10474400;28;2086;-55
2023/02/27 07:09:08;;;;;;;;;;;;;;;18.27;33.42;95852.38;10446164;28;2033;-54
2023/02/27 07:14:08;;;;;;;;;;;;;;;18.25;33.48;95858.91;10480652;28;2080;-55
2023/02/27 07:19:09;;;;;;;;;;;;;;;18.23;33.38;95866.25;10470984;28;1952;-55
2023/02/27 07:24:19;;;;;;;;;;;;;;;18.21;33.47;95863.09;10467852;28;1948;-55
2023/02/27 07:29:19;;;;;;;;;;;;;;;18.18;33.47;95869.63;10469877;28;1975;-54
2023/02/27 07:34:20;;;;;;;;;;;;;;;18.14;33.51;95863.31;10474369;28;2032;-55
2023/02/27 07:39:21;;;;;;;;;;;;;;;18.12;33.36;95877.72;10474443;28;1991;-56
2023/02/27 07:44:31;;;;;;;;;;;;;;;18.10;33.40;95880.63;10472626;28;2023;-55
2023/02/27 07:49:33;;;;;;;;;;;;;;;18.08;33.42;95884.53;10471936;28;2077;-55
2023/02/27 07:54:36;;;;;;;;;;;;;;;18.06;33.43;95881.38;10480083;28;1929;-54
2023/02/27 07:59:37;;;;;;;;;;;;;;;18.05;33.40;95885.84;10474298;28;1985;-53
2023/02/27 08:04:37;;;;;;;;;;;;;;;18.02;33.41;95888.16;10466293;28;2004;-53
2023/02/27 08:09:38;;;;;;;;;;;;;;;18.00;33.38;95891.06;10469134;28;2107;-55
2023/02/27 08:14:38;;;;;;;;;;;;;;;18.02;33.33;95901.28;10469160;28;1958;-55
2023/02/27 08:19:39;;;;;;;;;;;;;;;18.04;33.23;95893.94;10470037;28;1939;-54
2023/02/27 08:24:40;;;;;;;;;;;;;;;18.06;33.38;95897.09;10477404;28;1909;-54
2023/02/27 08:29:42;;;;;;;;;;;;;;;18.09;33.26;95899.25;10470035;28;2040;-55
2023/02/27 08:34:42;;;;;;;;;;;;;;;18.14;33.26;95913.16;10471723;28;1924;-54
2023/02/27 08:39:42;;;;;;;;;;;;;;;18.20;33.12;95908.72;10466063;28;2038;-53
2023/02/27 08:44:43;;;;;;;;;;;;;;;18.25;33.04;95912.19;10471990;28;2051;-56
2023/02/27 08:49:43;;;;;;;;;;;;;;;18.29;33.06;95917.72;10473285;28;1967;-55
2023/02/27 08:54:44;;;;;;;;;;;;;;;18.32;32.93;95917.22;10471537;28;2229;-54
2023/02/27 08:59:54;;;;;;;;;;;;;;;18.38;32.86;95927.47;10476695;28;1953;-53
2023/02/27 09:04:54;;;;;;;;;;;;;;;18.42;32.80;95927.75;10467024;28;2004;-54
2023/02/27 09:09:55;;;;;;;;;;;;;;;18.46;32.77;95928.84;10470145;28;1976;-55
2023/02/27 09:14:55;;;;;;;;;;;;;;;18.50;32.62;95937.81;10466291;28;1935;-53
2023/02/27 09:19:55;;;;;;;;;;;;;;;18.52;32.53;95946.22;10457417;28;2017;-52
2023/02/27 09:24:56;;;;;;;;;;;;;;;18.56;32.60;95940.19;10474596;28;1962;-53
2023/02/27 09:29:56;;;;;;;;;;;;;;;18.57;32.49;95947.00;10473274;28;1977;-54
2023/02/27 09:34:57;;;;;;;;;;;;;;;18.59;32.47;95946.75;10463159;28;2039;-53
2023/02/27 09:39:58;;;;;;;;;;;;;;;18.58;32.51;95955.69;10469486;28;2050;-53
2023/02/27 09:45:03;;;;;;;;;;;;;;;18.59;32.53;95959.88;10462539;28;2032;-55
2023/02/27 09:50:05;;;;;;;;;;;;;;;18.62;32.40;95969.88;10453866;28;2126;-55
2023/02/27 09:55:17;;;;;;;;;;;;;;;18.60;32.31;95971.97;10463268;28;2044;-55
2023/02/27 10:00:25;;;;;;;;;;;;;;;18.62;32.42;95975.13;10456374;28;1970;-53
2023/02/27 10:05:30;;;;;;;;;;;;;;;18.60;32.38;95983.28;10458067;28;2083;-54
2023/02/27 10:10:39;;;;;;;;;;;;;;;18.62;32.29;95986.44;10445058;28;1979;-57
2023/02/27 10:15:40;;;;;;;;;;;;;;;18.63;32.30;95992.44;10446602;28;1991;-56
2023/02/27 10:20:42;;;;;;;;;;;;;;;18.61;32.41;95999.78;10435703;28;1976;-55
2023/02/27 10:25:44;;;;;;;;;;;;;;;18.61;32.52;96007.66;10445225;28;2366;-55
2023/02/27 10:30:49;;;;;;;;;;;;;;;18.61;32.54;96005.03;10468350;28;2055;-55
2023/02/27 10:35:52;;;;;;;;;;;;;;;18.61;32.49;96010.28;10469712;28;2075;-55
2023/02/27 10:40:52;;;;;;;;;;;;;;;18.58;32.50;96003.75;10468443;28;1978;-55
2023/02/27 10:45:53;;;;;;;;;;;;;;;18.59;32.51;96001.88;10472477;28;2052;-56
2023/02/27 10:50:54;;;;;;;;;;;;;;;18.58;32.52;96002.94;10472037;28;2041;-57
2023/02/27 10:56:05;;;;;;;;;;;;;;;18.56;32.57;96003.22;10451787;28;2136;-56
2023/02/27 11:01:06;;;;;;;;;;;;;;;18.55;32.48;96013.94;10456888;28;2047;-55
2023/02/27 11:06:21;;;;;;;;;;;;;;;18.55;32.32;96006.88;10451287;28;1962;-54
2023/02/27 11:11:26;;;;;;;;;;;;;;;18.55;32.38;96013.94;10473826;28;2088;-53
2023/02/27 11:16:27;;;;;;;;;;;;;;;18.52;32.52;96001.34;10472298;28;1946;-51
2023/02/27 11:21:28;;;;;;;;;;;;;;;18.51;32.52;96005.00;10471442;28;2064;-52
2023/02/27 11:26:28;;;;;;;;;;;;;;;18.51;32.52;96003.16;10475089;28;1984;-53
2023/02/27 11:31:29;;;;;;;;;;;;;;;18.50;32.62;96000.81;10471800;28;1976;-55
2023/02/27 11:36:45;;;;;;;;;;;;;;;18.51;32.72;96011.03;10461715;28;2114;-57
2023/02/27 11:41:46;;;;;;;;;;;;;;;18.49;32.66;96001.84;10456189;28;2036;-55
2023/02/27 11:46:48;;;;;;;;;;;;;;;18.46;32.75;95991.84;10469483;28;1960;-56
2023/02/27 11:52:07;;;;;;;;;;;;;;;18.47;32.53;95991.59;10448682;28;2059;-56
2023/02/27 11:57:13;;;;;;;;;;;;;;;18.46;32.49;95997.09;10473346;28;1964;-56
2023/02/27 12:02:35;;;;;;;;;;;;;;;18.46;32.62;95981.34;10473440;28;2064;-54
2023/02/27 12:07:56;;;;;;;;;;;;;;;18.43;32.58;95973.94;10451407;28;1985;-56
2023/02/27 12:13:04;;;;;;;;;;;;;;;18.42;32.62;95991.53;10468774;28;2019;-55
2023/02/27 12:18:07;;;;;;;;;;;;;;;18.42;32.55;95988.13;10468640;28;2051;-56
2023/02/27 12:23:12;;;;;;;;;;;;;;;18.41;32.72;95989.97;10470389;28;1905;-54
2023/02/27 12:28:32;;;;;;;;;;;;;;;18.40;32.49;95987.59;10448396;28;1967;-56
2023/02/27 12:33:33;;;;;;;;;;;;;;;18.40;32.43;95992.84;10466619;28;2001;-54
2023/02/27 12:38:33;;;;;;;;;;;;;;;18.38;32.53;95989.69;10470646;28;1980;-54
2023/02/27 12:43:45;;;;;;;;;;;;;;;18.39;32.63;95988.63;10479848;28;2015;-54
2023/02/27 12:49:02;;;;;;;;;;;;;;;18.38;32.29;95994.94;10468149;28;2013;-55
2023/02/27 12:54:15;;;;;;;;;;;;;;;18.37;32.35;95990.72;10460657;28;1916;-56
2023/02/27 12:59:15;;;;;;;;;;;;;;;18.36;32.25;95989.16;10463682;28;2033;-55
2023/02/27 13:04:26;;;;;;;;;;;;;;;18.35;32.26;95995.41;10463820;28;2016;-55
2023/02/27 13:09:32;;;;;;;;;;;;;;;18.35;32.17;95993.59;10455385;28;1941;-55
2023/02/27 13:14:36;;;;;;;;;;;;;;;18.34;32.13;95999.09;10467720;28;2024;-55
2023/02/27 13:19:40;;;;;;;;;;;;;;;18.34;32.23;95999.09;10461767;28;2110;-57
2023/02/27 13:24:49;;;;;;;;;;;;;;;18.34;32.16;95999.09;10472451;28;1985;-54
2023/02/27 13:30:02;;;;;;;;;;;;;;;18.34;32.11;95989.38;10451892;28;1981;-54
2023/02/27 13:35:06;;;;;;;;;;;;;;;18.34;32.30;95994.63;10468240;28;1981;-54
2023/02/27 13:40:25;;;;;;;;;;;;;;;18.33;32.21;95990.44;10473480;28;2231;-56
2023/02/27 13:45:44;;;;;;;;;;;;;;;18.34;32.10;95993.84;10472658;28;2032;-55
2023/02/27 13:50:45;;;;;;;;;;;;;;;18.33;32.04;95998.31;10482595;28;2128;-56
2023/02/27 13:55:46;;;;;;;;;;;;;;;18.33;32.04;95994.88;10474280;28;1909;-54
2023/02/27 14:00:52;;;;;;;;;;;;;;;18.33;32.02;95994.88;10472589;28;1979;-55
2023/02/27 14:05:54;;;;;;;;;;;;;;;18.32;32.02;95985.44;10457765;28;1967;-54
2023/02/27 14:10:55;;;;;;;;;;;;;;;18.33;32.00;95997.50;10457514;28;1996;-56
2023/02/27 14:15:55;;;;;;;;;;;;;;;18.32;32.02;95991.47;10470105;28;1994;-53
2023/02/27 14:20:57;;;;;;;;;;;;;;;18.33;32.00;95993.06;10472080;28;2193;-55
2023/02/27 14:26:10;;;;;;;;;;;;;;;18.31;32.04;95999.59;10470524;28;1906;-55
2023/02/27 14:31:25;;;;;;;;;;;;;;;18.31;31.97;95996.97;10474601;28;1941;-55
2023/02/27 14:36:26;;;;;;;;;;;;;;;18.29;32.02;95997.22;10498300;28;1962;-56
2023/02/27 14:41:44;;;;;;;;;;;;;;;18.28;32.00;95987.00;10452680;28;2004;-56
2023/02/27 14:46:44;;;;;;;;;;;;;;;18.26;31.97;95996.94;10470387;28;2023;-56
2023/02/27 14:51:44;;;;;;;;;;;;;;;18.22;31.92;95991.41;10468516;28;2145;-56
2023/02/27 14:57:00;;;;;;;;;;;;;;;18.19;31.91;96002.41;10463784;28;1959;-55
2023/02/27 15:02:02;;;;;;;;;;;;;;;18.14;31.91;95991.06;10467297;28;1944;-56
2023/02/27 15:07:03;;;;;;;;;;;;;;;18.13;31.95;96002.63;10484613;28;2148;-55
2023/02/27 15:12:04;;;;;;;;;;;;;;;18.08;31.88;95999.94;10478818;28;2130;-55
2023/02/27 15:17:33;;;;;;;;;;;;;;;18.06;31.94;96009.91;10483072;28;1932;-54
2023/02/27 15:22:35;;;;;;;;;;;;;;;18.01;31.92;96020.38;10467082;28;1972;-57
2023/02/27 15:27:36;;;;;;;;;;;;;;;17.98;32.01;96011.16;10463002;28;2073;-54
2023/02/27 15:32:40;;;;;;;;;;;;;;;17.94;31.98;96009.28;10450598;28;1960;-56
2023/02/27 15:37:42;;;;;;;;;;;;;;;17.91;31.92;96010.56;10456454;28;2090;-54
2023/02/27 15:42:43;;;;;;;;;;;;;;;17.88;31.92;96018.97;10448929;28;1960;-55
2023/02/27 15:47:43;;;;;;;;;;;;;;;17.84;31.93;96025.75;10455342;28;2081;-57
2023/02/27 15:53:03;;;;;;;;;;;;;;;17.81;31.87;96027.03;10472349;28;2042;-54
2023/02/27 15:58:06;;;;;;;;;;;;;;;17.76;31.86;96029.59;10478386;28;2019;-56
2023/02/27 16:03:07;;;;;;;;;;;;;;;17.75;31.89;96032.47;10471908;28;1981;-51
2023/02/27 16:08:12;;;;;;;;;;;;;;;17.70;31.94;96035.06;10468408;28;1968;-56
2023/02/27 16:13:34;;;;;;;;;;;;;;;17.67;31.86;96038.97;10484839;28;2019;-56
2023/02/27 16:18:43;;;;;;;;;;;;;;;17.64;32.00;96054.41;10452546;28;1957;-56
2023/02/27 16:23:44;;;;;;;;;;;;;;;17.60;31.88;96056.69;10470727;28;1988;-56
2023/02/27 16:28:45;;;;;;;;;;;;;;;17.57;31.93;96056.41;10450106;28;2139;-57
2023/02/27 16:33:45;;;;;;;;;;;;;;;17.55;31.93;96064.53;10471377;28;1968;-57
2023/02/27 16:38:45;;;;;;;;;;;;;;;17.53;31.80;96077.09;10439770;28;2139;-55
2023/02/27 16:43:46;;;;;;;;;;;;;;;17.50;31.82;96076.78;10460078;28;1945;-56
2023/02/27 16:48:50;;;;;;;;;;;;;;;17.47;31.77;96080.66;10449055;28;2355;-54
2023/02/27 16:53:51;;;;;;;;;;;;;;;17.44;31.74;96083.75;10458845;28;1970;-57
2023/02/27 16:58:52;;;;;;;;;;;;;;;17.41;31.68;96089.50;10476026;28;2043;-57
2023/02/27 17:03:53;;;;;;;;;;;;;;;17.39;31.65;96096.81;10463856;28;2059;-56
2023/02/27 17:08:54;;;;;;;;;;;;;;;17.36;31.60;96093.88;10466789;28;1982;-53
2023/02/27 17:13:55;;;;;;;;;;;;;;;17.33;31.54;96108.25;10462810;28;2047;-54
2023/02/27 17:18:56;;;;;;;;;;;;;;;17.32;31.49;96109.31;10479266;28;2133;-56
2023/02/27 17:23:56;;;;;;;;;;;;;;;17.29;31.46;96117.63;10470405;28;2051;-56
2023/02/27 17:28:57;;;;;;;;;;;;;;;17.28;31.34;96123.13;10468808;28;2035;-55
2023/02/27 17:33:57;;;;;;;;;;;;;;;17.27;31.47;96124.19;10472599;28;1985;-55
2023/02/27 17:39:02;;;;;;;;;;;;;;;17.29;31.78;96138.59;10470976;28;1956;-55
2023/02/27 17:44:03;;;;;;;;;;;;;;;17.28;31.82;96129.16;10466768;28;1985;-58
2023/02/27 17:49:04;;;;;;;;;;;;;;;17.35;31.70;96148.09;10474615;28;1956;-55
2023/02/27 17:54:04;;;;;;;;;;;;;;;17.45;31.81;96153.50;10466821;28;1975;-55
2023/02/27 17:59:06;;;;;;;;;;;;;;;17.56;31.79;96159.66;10481005;28;2137;-53
2023/02/27 18:04:10;;;;;;;;;;;;;;;17.65;31.88;96158.22;10478222;28;1932;-53
2023/02/27 18:09:11;;;;;;;;;;;;;;;17.74;31.94;96162.75;10475939;28;1977;-53
2023/02/27 18:14:12;;;;;;;;;;;;;;;17.83;31.72;96158.69;10471619;28;2012;-53
2023/02/27 18:19:13;;;;;;;;;;;;;;;17.92;31.70;96168.72;10469473;28;2051;-53
2023/02/27 18:24:14;;;;;;;;;;;;;;;17.99;31.49;96164.09;10475367;28;1955;-54
2023/02/27 18:29:16;;;;;;;;;;;;;;;18.07;31.46;96166.28;10471982;28;2076;-52
2023/02/27 18:34:16;;;;;;;;;;;;;;;18.13;31.55;96173.94;10470258;28;2113;-54
2023/02/27 18:39:17;;;;;;;;;;;;;;;18.19;31.29;96172.16;10471553;28;1986;-54
2023/02/27 18:44:18;;;;;;;;;;;;;;;18.23;31.21;96168.81;10469626;28;1960;-54
2023/02/27 18:49:18;;;;;;;;;;;;;;;18.27;31.16;96171.72;10459404;28;1905;-54
2023/02/27 18:54:19;;;;;;;;;;;;;;;18.30;31.25;96177.25;10484026;28;1482;-53
2023/02/27 18:59:19;;;;;;;;;;;;;;;18.36;31.30;96191.22;10482760;28;1821;-54
2023/02/27 19:04:20;;;;;;;;;;;;;;;18.39;31.17;96182.84;10468240;28;2045;-53
2023/02/27 19:09:22;;;;;;;;;;;;;;;18.44;30.68;96180.31;10470147;28;2114;-53
2023/02/27 19:14:30;;;;;;;;;;;;;;;18.47;30.75;96191.09;10464543;28;1928;-56
2023/02/27 19:19:41;;;;;;;;;;;;;;;18.46;30.69;96186.91;10463492;28;2014;-54
2023/02/27 19:24:43;;;;;;;;;;;;;;;18.46;31.00;96191.34;10473689;28;2060;-54
2023/02/27 19:29:44;;;;;;;;;;;;;;;18.48;31.02;96187.44;10472321;28;1992;-53
2023/02/27 19:34:45;;;;;;;;;;;;;;;18.52;30.86;96185.09;10472718;28;1991;-52
2023/02/27 19:39:46;;;;;;;;;;;;;;;18.52;30.94;96179.84;10470801;28;2122;-53
2023/02/27 19:44:47;;;;;;;;;;;;;;;18.53;30.75;96181.41;10464112;28;2067;-53
2023/02/27 19:49:48;;;;;;;;;;;;;;;18.54;30.77;96178.56;10474283;28;1961;-54
2023/02/27 19:54:48;;;;;;;;;;;;;;;18.53;30.83;96179.59;10476825;28;2001;-55
2023/02/27 19:59:49;;;;;;;;;;;;;;;18.54;30.82;96178.56;10477114;28;1980;-53
2023/02/27 20:04:50;;;;;;;;;;;;;;;18.55;30.97;96180.13;10468608;28;1912;-53
2023/02/27 20:09:51;;;;;;;;;;;;;;;18.57;30.90;96174.63;10471438;28;1960;-52
2023/02/27 20:14:51;;;;;;;;;;;;;;;18.58;30.61;96174.41;10458264;28;1924;-53
2023/02/27 20:19:51;;;;;;;;;;;;;;;18.59;30.81;96175.16;10469911;28;2059;-51
2023/02/27 20:24:56;;;;;;;;;;;;;;;18.61;30.57;96171.25;10472831;28;1991;-50
2023/02/27 20:29:56;;;;;;;;;;;;;;;18.60;30.68;96176.75;10477009;28;1979;-50
2023/02/27 20:34:57;;;;;;;;;;;;;;;18.58;30.53;96168.34;10474623;28;1976;-52
2023/02/27 20:39:58;;;;;;;;;;;;;;;18.57;30.67;96166.75;10467870;28;2036;-47
2023/02/27 20:45:01;;;;;;;;;;;;;;;18.54;30.81;96157.56;10475180;28;1968;-50
2023/02/27 20:50:11;;;;;;;;;;;;;;;18.48;30.99;96152.50;10465947;28;2005;-54
2023/02/27 20:55:12;;;;;;;;;;;;;;;18.39;31.17;96153.97;10468477;28;2072;-53
2023/02/27 21:00:24;;;;;;;;;;;;;;;18.34;31.25;96151.31;10470805;28;1988;-51
2023/02/27 21:05:33;;;;;;;;;;;;;;;18.27;31.39;96145.47;10467551;28;1984;-54
2023/02/27 21:10:45;;;;;;;;;;;;;;;18.20;31.29;96147.50;10453111;28;2014;-52
2023/02/27 21:15:45;;;;;;;;;;;;;;;18.15;31.46;96142.22;10453998;28;1997;-53
2023/02/27 21:20:46;;;;;;;;;;;;;;;18.10;31.64;96137.69;10465424;28;1963;-53
2023/02/27 21:25:47;;;;;;;;;;;;;;;18.06;31.80;96143.69;10470088;28;2037;-54
2023/02/27 21:30:53;;;;;;;;;;;;;;;18.01;32.02;96141.81;10467307;28;1973;-54
2023/02/27 21:35:54;;;;;;;;;;;;;;;17.97;32.08;96153.06;10454182;28;1972;-52
2023/02/27 21:40:54;;;;;;;;;;;;;;;17.94;32.05;96148.28;10466164;28;1984;-54
2023/02/27 21:45:55;;;;;;;;;;;;;;;17.89;31.99;96149.81;10466734;28;1999;-53
2023/02/27 21:50:58;;;;;;;;;;;;;;;17.87;32.15;96130.91;10472517;28;1983;-54
2023/02/27 21:56:03;;;;;;;;;;;;;;;17.84;32.17;96139.31;10468175;28;1964;-52
2023/02/27 22:01:14;;;;;;;;;;;;;;;17.80;32.05;96127.69;10450259;28;1991;-53
2023/02/27 22:06:14;;;;;;;;;;;;;;;17.79;32.12;96125.31;10447423;28;2019;-53
2023/02/27 22:11:14;;;;;;;;;;;;;;;17.77;32.06;96120.34;10471174;28;2030;-52
2023/02/27 22:16:16;;;;;;;;;;;;;;;17.78;32.06;96110.66;10472317;28;1897;-53
2023/02/27 22:21:21;;;;;;;;;;;;;;;17.76;32.05;96110.88;10467726;28;2040;-53
2023/02/27 22:26:23;;;;;;;;;;;;;;;17.76;32.01;96116.13;10465716;28;2081;-54
2023/02/27 22:31:28;;;;;;;;;;;;;;;17.77;31.86;96099.34;10458017;28;1975;-52
2023/02/27 22:36:29;;;;;;;;;;;;;;;17.75;31.71;96106.69;10454807;28;1963;-52
2023/02/27 22:41:30;;;;;;;;;;;;;;;17.75;31.82;96084.91;10470750;28;1982;-53
2023/02/27 22:46:32;;;;;;;;;;;;;;;17.74;31.74;96089.34;10459867;28;2100;-54
2023/02/27 22:51:33;;;;;;;;;;;;;;;17.73;31.80;96093.03;10474185;28;1973;-52
2023/02/27 22:56:35;;;;;;;;;;;;;;;17.73;31.75;96079.91;10474999;28;2032;-51
2023/02/27 23:01:36;;;;;;;;;;;;;;;17.74;31.77;96073.63;10475911;28;1960;-55
2023/02/27 23:06:41;;;;;;;;;;;;;;;17.74;31.68;96072.84;10470360;28;2060;-52
2023/02/27 23:11:42;;;;;;;;;;;;;;;17.75;31.76;96069.97;10473900;28;2005;-53
2023/02/27 23:16:46;;;;;;;;;;;;;;;17.74;31.56;96073.63;10471637;28;1955;-53
2023/02/27 23:21:47;;;;;;;;;;;;;;;17.73;31.63;96072.03;10471554;28;1948;-51
2023/02/27 23:26:48;;;;;;;;;;;;;;;17.76;31.48;96071.53;10467311;28;2091;-53
2023/02/27 23:31:48;;;;;;;;;;;;;;;17.75;31.54;96079.66;10454237;28;1959;-55
2023/02/27 23:36:49;;;;;;;;;;;;;;;17.74;31.39;96078.09;10472513;28;1979;-55
2023/02/27 23:41:49;;;;;;;;;;;;;;;17.73;31.36;96069.44;10453501;28;2024;-55
2023/02/27 23:46:50;;;;;;;;;;;;;;;17.74;31.39;96068.38;10456070;28;1952;-54
2023/02/27 23:51:51;;;;;;;;;;;;;;;17.74;31.34;96063.13;10477117;28;1999;-52
2023/02/27 23:56:52;;;;;;;;;;;;;;;17.73;31.33;96061.56;10463851;28;2000;-52
